Time;durP1;ratioP1;P1;durP2;ratioP2;P2;SDS_P1;SDS_P2;PMS_P1;PMS_P2;Temp;Humidity;BMP_temperature;BMP_pressure;BME280_temperature;BME280_humidity;BME280_pressure;Samples;Min_cycle;Max_cycle;Signal;HPM_P1;HPM_P2
2023/06/14 00:02:14;;;;;;;8.43;5.60;;;;;;;15.83;53.82;100113.03;5045595;28;20230;-65
2023/06/14 00:04:41;;;;;;;9.47;6.07;;;;;;;15.74;54.50;100115.84;5050198;28;20387;-65
2023/06/14 00:07:08;;;;;;;10.07;6.00;;;;;;;15.69;54.03;100120.34;5047688;28;20282;-67
2023/06/14 00:09:37;;;;;;;7.60;5.80;;;;;;;15.60;54.51;100115.09;5046303;28;20222;-66
2023/06/14 00:12:03;;;;;;;9.50;5.83;;;;;;;15.54;54.60;100118.69;5049070;28;20195;-66
2023/06/14 00:14:32;;;;;;;8.23;5.57;;;;;;;15.51;55.19;100124.06;5042544;28;20195;-65
2023/06/14 00:16:58;;;;;;;6.90;5.83;;;;;;;15.50;55.22;100118.75;5037781;28;20213;-65
2023/06/14 00:19:26;;;;;;;7.43;5.80;;;;;;;15.44;55.07;100119.69;5047214;28;20239;-64
2023/06/14 00:21:52;;;;;;;7.30;5.80;;;;;;;15.42;55.82;100117.94;5049698;28;20310;-65
2023/06/14 00:24:19;;;;;;;6.57;5.60;;;;;;;15.34;55.68;100118.91;5048511;28;20578;-65
2023/06/14 00:26:47;;;;;;;7.53;5.93;;;;;;;15.45;55.78;100118.78;5039369;28;20196;-66
2023/06/14 00:29:13;;;;;;;8.70;5.90;;;;;;;15.45;55.14;100123.25;5045288;28;20223;-65
2023/06/14 00:31:39;;;;;;;7.83;5.70;;;;;;;15.48;55.60;100112.53;5051303;28;20671;-67
2023/06/14 00:34:06;;;;;;;8.90;5.63;;;;;;;15.52;55.17;100123.16;5049181;28;20191;-66
2023/06/14 00:36:32;;;;;;;7.37;5.50;;;;;;;15.54;54.94;100110.66;5043425;28;20223;-67
2023/06/14 00:38:59;;;;;;;10.33;5.87;;;;;;;15.50;55.20;100121.41;5044907;28;20215;-65
2023/06/14 00:41:25;;;;;;;8.33;5.60;;;;;;;15.48;55.25;100116.09;5040237;28;20222;-65
2023/06/14 00:43:52;;;;;;;7.80;5.70;;;;;;;15.60;55.22;100118.63;5045271;28;20203;-65
2023/06/14 00:46:19;;;;;;;9.23;5.30;;;;;;;15.65;53.98;100113.28;5048161;28;20650;-66
2023/06/14 00:48:47;;;;;;;5.90;5.30;;;;;;;15.75;53.43;100114.03;5048033;28;20269;-66
2023/06/14 00:51:13;;;;;;;7.27;5.20;;;;;;;16.04;51.30;100119.03;5046531;28;20613;-66
2023/06/14 00:53:45;;;;;;;9.50;5.00;;;;;;;16.32;50.13;100109.72;5049992;28;20286;-65
2023/06/14 00:56:14;;;;;;;6.07;4.70;;;;;;;16.39;49.24;100118.50;5047879;28;20577;-65
2023/06/14 00:58:42;;;;;;;5.30;4.70;;;;;;;16.45;49.03;100122.00;5045800;28;20218;-65
2023/06/14 01:01:09;;;;;;;7.97;5.07;;;;;;;16.85;47.05;100119.63;5049119;28;20681;-66
2023/06/14 01:03:35;;;;;;;7.67;4.80;;;;;;;16.98;47.00;100122.09;5045480;28;20194;-65
2023/06/14 01:06:26;;;;;;;8.23;5.50;;;;;;;17.07;47.99;100132.63;5045751;28;20199;-65
2023/06/14 01:09:23;;;;;;;9.87;4.90;;;;;;;16.96;47.80;100127.47;5043280;28;20222;-65
2023/06/14 01:12:01;;;;;;;9.67;4.93;;;;;;;16.88;47.81;100129.38;5047662;28;20281;-65
2023/06/14 01:14:31;;;;;;;9.73;4.87;;;;;;;16.86;48.66;100126.75;5046698;28;20638;-65
2023/06/14 01:17:00;;;;;;;8.70;4.80;;;;;;;16.89;47.40;100128.47;5045944;28;20195;-66
2023/06/14 01:19:27;;;;;;;7.07;4.97;;;;;;;17.04;48.80;100130.00;5047563;28;20647;-65
2023/06/14 01:21:55;;;;;;;6.47;5.03;;;;;;;16.96;48.96;100131.94;5047170;28;20218;-68
2023/06/14 01:24:25;;;;;;;6.10;4.43;;;;;;;16.88;49.09;100127.59;5047496;28;20218;-64
2023/06/14 01:26:56;;;;;;;7.10;5.00;;;;;;;16.84;48.98;100133.91;5046200;28;20199;-66
2023/06/14 01:29:25;;;;;;;9.90;5.00;;;;;;;16.80;48.39;100128.59;5045250;28;20215;-65
2023/06/14 01:31:53;;;;;;;6.87;4.70;;;;;;;16.67;49.19;100127.03;5046946;28;20195;-66
2023/06/14 01:34:19;;;;;;;11.03;4.83;;;;;;;16.57;49.59;100137.84;5040824;28;20195;-65
2023/06/14 01:36:47;;;;;;;5.67;5.00;;;;;;;16.53;49.41;100136.13;5048418;28;20816;-66
2023/06/14 01:39:15;;;;;;;8.80;5.00;;;;;;;16.54;49.61;100134.34;5047756;28;20313;-65
2023/06/14 01:41:43;;;;;;;9.57;4.70;;;;;;;16.48;49.47;100135.31;5034481;28;20254;-67
2023/06/14 01:44:11;;;;;;;7.50;5.10;;;;;;;16.44;50.18;100133.59;5043292;28;20579;-67
2023/06/14 01:46:38;;;;;;;5.60;4.80;;;;;;;16.42;49.85;100137.22;5043418;28;20675;-64
2023/06/14 01:49:04;;;;;;;6.87;4.77;;;;;;;16.33;49.48;100135.53;5042002;28;20251;-66
2023/06/14 01:51:33;;;;;;;7.53;4.53;;;;;;;16.36;49.09;100134.59;5034398;28;20621;-65
2023/06/14 01:54:00;;;;;;;5.70;4.57;;;;;;;16.50;48.96;100136.19;5047889;28;20409;-65
2023/06/14 01:56:27;;;;;;;6.20;4.57;;;;;;;16.55;48.52;100138.78;5048287;28;20191;-66
2023/06/14 01:58:53;;;;;;;6.17;4.60;;;;;;;16.46;48.98;100136.25;5045223;28;20242;-65
2023/06/14 02:01:21;;;;;;;7.47;4.57;;;;;;;16.45;48.37;100134.50;5046343;28;20249;-65
2023/06/14 02:03:49;;;;;;;5.83;4.50;;;;;;;16.44;48.73;100132.72;5046597;28;20294;-66
2023/06/14 02:06:18;;;;;;;6.17;4.37;;;;;;;16.47;48.49;100133.56;5046041;28;20202;-65
2023/06/14 02:08:44;;;;;;;7.13;4.40;;;;;;;16.42;48.70;100138.09;5041917;28;20594;-65
2023/06/14 02:11:11;;;;;;;7.80;4.43;;;;;;;16.44;48.47;100130.06;5047515;28;20281;-68
2023/06/14 02:13:37;;;;;;;7.13;4.50;;;;;;;16.54;47.74;100135.22;5045930;28;20191;-65
2023/06/14 02:16:04;;;;;;;16.43;4.23;;;;;;;16.62;47.32;100137.78;5029174;28;20238;-68
2023/06/14 02:18:30;;;;;;;5.20;4.20;;;;;;;16.72;47.64;100141.22;5044608;28;20301;-66
2023/06/14 02:20:57;;;;;;;7.97;4.83;;;;;;;16.89;46.56;100136.50;5043708;28;20222;-65
2023/06/14 02:23:23;;;;;;;5.83;4.40;;;;;;;16.90;46.43;100139.16;5043480;28;20199;-66
2023/06/14 02:25:49;;;;;;;4.80;4.30;;;;;;;17.01;46.24;100135.41;5046299;28;20695;-65
2023/06/14 02:28:16;;;;;;;6.93;4.40;;;;;;;16.94;46.44;100142.66;5043900;28;20661;-66
2023/06/14 02:30:42;;;;;;;8.93;4.40;;;;;;;16.89;46.47;100139.19;5042009;28;20286;-65
2023/06/14 02:33:12;;;;;;;6.23;4.37;;;;;;;16.84;46.71;100139.25;5027905;28;20706;-66
2023/06/14 02:35:39;;;;;;;6.63;5.20;;;;;;;16.91;46.40;100137.38;5042385;28;20223;-65
2023/06/14 02:38:06;;;;;;;5.20;4.10;;;;;;;16.91;46.65;100140.03;5029395;28;20744;-65
2023/06/14 02:40:33;;;;;;;11.40;4.43;;;;;;;16.75;46.81;100149.19;5045143;28;20199;-65
2023/06/14 02:42:59;;;;;;;7.80;4.33;;;;;;;16.64;47.40;100144.00;5046403;28;20655;-65
2023/06/14 02:45:26;;;;;;;10.73;4.73;;;;;;;16.61;47.52;100149.38;5045928;28;20227;-67
2023/06/14 02:47:52;;;;;;;5.17;4.67;;;;;;;16.63;47.44;100141.34;5046006;28;20233;-65
2023/06/14 02:50:21;;;;;;;8.03;4.83;;;;;;;16.56;47.76;100143.22;5042821;28;20217;-65
2023/06/14 02:52:47;;;;;;;7.13;4.53;;;;;;;16.59;47.84;100149.41;5046814;28;20591;-65
2023/06/14 02:55:14;;;;;;;6.23;4.97;;;;;;;16.63;47.93;100144.00;5044719;28;20569;-65
2023/06/14 02:57:40;;;;;;;6.37;4.53;;;;;;;16.50;48.46;100143.31;5043626;28;20249;-65
2023/06/14 03:00:10;;;;;;;7.53;5.00;;;;;;;16.35;49.89;100144.41;5048873;28;20287;-65
2023/06/14 03:02:36;;;;;;;9.87;4.70;;;;;;;16.37;49.58;100137.25;5046825;28;20211;-65
2023/06/14 03:05:03;;;;;;;6.53;4.47;;;;;;;16.13;50.21;100145.63;5041771;28;20554;-65
2023/06/14 03:07:29;;;;;;;6.67;4.30;;;;;;;16.17;50.70;100147.34;5044664;28;20222;-65
2023/06/14 03:09:56;;;;;;;6.33;4.63;;;;;;;16.10;51.13;100148.34;5022410;28;20206;-64
2023/06/14 03:12:23;;;;;;;7.37;4.70;;;;;;;16.05;51.57;100151.06;5044314;28;20249;-67
2023/06/14 03:14:51;;;;;;;8.10;5.33;;;;;;;15.93;51.67;100156.53;5025940;28;20578;-65
2023/06/14 03:17:19;;;;;;;6.40;4.70;;;;;;;15.88;51.91;100159.25;5043322;28;20201;-65
2023/06/14 03:19:45;;;;;;;6.63;4.60;;;;;;;15.87;52.16;100164.63;5046588;28;20199;-65
2023/06/14 03:22:12;;;;;;;8.77;4.93;;;;;;;15.77;52.79;100163.84;5044063;28;20231;-65
2023/06/14 03:24:39;;;;;;;7.47;4.93;;;;;;;15.66;53.15;100168.44;5041762;28;20204;-65
2023/06/14 03:27:06;;;;;;;6.17;4.73;;;;;;;15.49;54.25;100163.22;5045434;28;20257;-66
2023/06/14 03:29:32;;;;;;;9.20;5.07;;;;;;;15.51;54.06;100177.44;5040874;28;20616;-65
2023/06/14 03:32:00;;;;;;;9.80;5.10;;;;;;;15.49;54.15;100170.34;5043166;28;20199;-66
2023/06/14 03:34:27;;;;;;;5.87;4.27;;;;;;;15.42;53.94;100182.00;5043334;28;20278;-66
2023/06/14 03:36:53;;;;;;;6.83;4.97;;;;;;;15.28;55.01;100182.13;5048096;28;20199;-66
2023/06/14 03:39:20;;;;;;;7.00;5.40;;;;;;;15.19;55.58;100185.75;5045181;28;20234;-66
2023/06/14 03:41:46;;;;;;;7.03;4.67;;;;;;;15.18;55.99;100180.41;5041859;28;20230;-66
2023/06/14 03:44:18;;;;;;;6.63;4.67;;;;;;;15.18;56.29;100193.75;5043518;28;20549;-65
2023/06/14 03:46:47;;;;;;;5.87;5.00;;;;;;;15.22;56.39;100193.75;5040870;28;20610;-65
2023/06/14 03:49:16;;;;;;;9.30;5.00;;;;;;;15.23;56.14;100192.84;5045906;28;20242;-66
2023/06/14 03:51:42;;;;;;;7.13;5.17;;;;;;;15.27;56.03;100202.59;5047713;28;20206;-66
2023/06/14 03:54:08;;;;;;;7.63;5.00;;;;;;;15.31;55.87;100196.31;5049382;28;20199;-66
2023/06/14 03:56:38;;;;;;;5.83;4.50;;;;;;;15.34;56.55;100195.41;5050762;28;20677;-66
2023/06/14 03:59:04;;;;;;;7.40;4.87;;;;;;;15.35;56.64;100202.50;5045777;28;20234;-68
2023/06/14 04:01:33;;;;;;;7.03;5.00;;;;;;;15.32;57.68;100206.09;5050637;28;20211;-66
2023/06/14 04:03:59;;;;;;;6.33;5.00;;;;;;;15.31;56.34;100204.34;5049820;28;20206;-66
2023/06/14 04:06:31;;;;;;;10.70;4.83;;;;;;;15.53;56.64;100210.34;5049950;28;20210;-66
2023/06/14 04:09:02;;;;;;;5.93;4.50;;;;;;;15.56;56.15;100212.09;5048392;28;20226;-66
2023/06/14 04:11:28;;;;;;;7.47;5.00;;;;;;;15.74;56.07;100208.41;5045857;28;20629;-67
2023/06/14 04:13:56;;;;;;;6.37;4.93;;;;;;;15.87;55.01;100213.59;5047767;28;20615;-67
2023/06/14 04:16:23;;;;;;;11.33;5.63;;;;;;;15.84;55.72;100213.63;5047401;28;20214;-67
2023/06/14 04:18:51;;;;;;;7.73;4.77;;;;;;;15.85;55.25;100217.16;5043631;28;20234;-68
2023/06/14 04:21:18;;;;;;;7.67;4.60;;;;;;;15.92;54.22;100219.75;5047470;28;20202;-66
2023/06/14 04:23:45;;;;;;;6.83;5.37;;;;;;;15.99;54.49;100213.44;5045598;28;20199;-66
2023/06/14 04:26:11;;;;;;;10.57;5.23;;;;;;;16.00;54.27;100214.31;5041096;28;20207;-67
2023/06/14 04:28:40;;;;;;;7.30;4.53;;;;;;;15.96;54.89;100216.16;5044065;28;20238;-66
2023/06/14 04:31:08;;;;;;;7.13;4.90;;;;;;;15.93;55.99;100221.53;5048475;28;20245;-67
2023/06/14 04:33:44;;;;;;;7.00;4.93;;;;;;;15.91;56.50;100217.97;5041980;28;20206;-67
2023/06/14 04:36:13;;;;;;;7.87;5.10;;;;;;;16.00;56.67;100227.66;5045486;28;20565;-66
2023/06/14 04:38:41;;;;;;;14.10;5.60;;;;;;;16.18;55.61;100221.25;5045484;28;20223;-68
2023/06/14 04:41:11;;;;;;;8.30;5.00;;;;;;;16.34;55.53;100225.50;5048096;28;20658;-67
2023/06/14 04:43:37;;;;;;;7.10;5.07;;;;;;;16.42;55.21;100220.97;5041601;28;20195;-67
2023/06/14 04:46:10;;;;;;;8.40;4.90;;;;;;;16.59;54.42;100218.94;5044143;28;20206;-66
2023/06/14 04:48:39;;;;;;;6.23;4.83;;;;;;;16.72;54.19;100229.47;5047065;28;20219;-67
2023/06/14 04:51:05;;;;;;;8.33;5.13;;;;;;;16.83;53.88;100217.75;5044307;28;20213;-68
2023/06/14 04:53:32;;;;;;;7.60;5.60;;;;;;;16.95;53.57;100223.81;5047284;28;20191;-67
2023/06/14 04:55:58;;;;;;;7.37;4.83;;;;;;;17.01;53.70;100224.59;5046958;28;20205;-66
2023/06/14 04:58:24;;;;;;;8.97;5.57;;;;;;;17.11;54.03;100230.66;5039465;28;20714;-66
2023/06/14 05:00:51;;;;;;;6.13;5.07;;;;;;;17.16;51.97;100227.00;5048217;28;20302;-66
2023/06/14 05:03:20;;;;;;;11.17;4.90;;;;;;;17.30;52.03;100225.91;5040716;28;20223;-67
2023/06/14 05:05:47;;;;;;;7.70;4.90;;;;;;;17.38;51.93;100237.38;5025256;28;20199;-66
2023/06/14 05:08:14;;;;;;;7.50;4.87;;;;;;;17.40;52.48;100239.13;5047531;28;20215;-66
2023/06/14 05:10:40;;;;;;;7.00;5.03;;;;;;;17.60;52.25;100237.88;5040654;28;20199;-65
2023/06/14 05:13:07;;;;;;;7.47;4.90;;;;;;;17.64;51.99;100240.50;5040761;28;20291;-65
2023/06/14 05:15:33;;;;;;;8.20;4.83;;;;;;;17.70;53.80;100243.09;5046007;28;20202;-64
2023/06/14 05:18:00;;;;;;;9.67;4.90;;;;;;;17.82;52.04;100248.22;5043642;28;20230;-64
2023/06/14 05:20:26;;;;;;;4.63;4.17;;;;;;;17.84;51.21;100250.88;5026068;28;20238;-64
2023/06/14 05:22:53;;;;;;;6.80;4.40;;;;;;;17.97;49.47;100247.03;5045810;28;20737;-65
2023/06/14 05:25:20;;;;;;;10.33;4.47;;;;;;;18.11;48.47;100252.16;5045510;28;20199;-64
2023/06/14 05:27:47;;;;;;;6.57;4.93;;;;;;;18.35;47.48;100243.59;5043281;28;20780;-64
2023/06/14 05:30:15;;;;;;;6.07;4.60;;;;;;;18.72;46.10;100249.09;5041261;28;20583;-64
2023/06/14 05:32:41;;;;;;;9.73;4.63;;;;;;;19.94;43.30;100248.81;5046563;28;20682;-64
2023/06/14 05:35:08;;;;;;;7.40;4.20;;;;;;;19.84;42.45;100246.41;5043486;28;20246;-64
2023/06/14 05:37:35;;;;;;;6.80;4.37;;;;;;;19.58;42.87;100249.78;5045497;28;20229;-64
2023/06/14 05:40:04;;;;;;;9.47;3.90;;;;;;;19.37;44.31;100246.69;5041495;28;20198;-65
2023/06/14 05:42:31;;;;;;;5.30;4.00;;;;;;;19.23;43.42;100259.56;5046374;28;20210;-64
2023/06/14 05:44:58;;;;;;;7.37;3.90;;;;;;;19.23;43.64;100264.06;5038317;28;20203;-64
2023/06/14 05:47:25;;;;;;;7.10;3.93;;;;;;;19.39;43.46;100276.19;5041761;28;20203;-65
2023/06/14 05:49:52;;;;;;;5.57;3.87;;;;;;;19.51;43.28;100273.19;5025087;28;20201;-64
2023/06/14 05:52:18;;;;;;;4.60;3.70;;;;;;;19.51;43.30;100275.88;5034811;28;20659;-64
2023/06/14 05:54:44;;;;;;;10.53;3.97;;;;;;;19.52;43.20;100280.31;5042041;28;20226;-64
2023/06/14 05:57:11;;;;;;;7.20;3.67;;;;;;;19.60;43.30;100275.66;5041392;28;20198;-64
2023/06/14 05:59:37;;;;;;;5.30;4.00;;;;;;;19.49;43.03;100280.41;5039688;28;20214;-65
2023/06/14 06:02:05;;;;;;;6.90;4.00;;;;;;;19.39;43.55;100287.81;5039723;28;20223;-65
2023/06/14 06:04:31;;;;;;;5.60;3.60;;;;;;;19.41;44.04;100282.41;5036648;28;20206;-64
2023/06/14 06:06:58;;;;;;;6.47;3.90;;;;;;;19.35;43.88;100282.56;5043125;28;20672;-64
2023/06/14 06:09:24;;;;;;;6.60;3.90;;;;;;;19.36;43.63;100295.94;5043363;28;20236;-64
2023/06/14 06:11:50;;;;;;;6.40;4.17;;;;;;;19.42;43.95;100298.47;5045498;28;20199;-65
2023/06/14 06:14:19;;;;;;;9.60;4.10;;;;;;;19.46;43.38;100301.09;5035263;28;20195;-64
2023/06/14 06:16:46;;;;;;;6.47;3.87;;;;;;;19.55;42.90;100301.78;5042319;28;20643;-64
2023/06/14 06:19:15;;;;;;;5.10;3.47;;;;;;;19.73;42.84;100303.13;5042094;28;20785;-64
2023/06/14 06:21:42;;;;;;;4.53;3.60;;;;;;;19.75;42.54;100298.59;5047128;28;20195;-64
2023/06/14 06:24:08;;;;;;;5.50;3.70;;;;;;;19.99;43.01;100302.44;5045592;28;20717;-65
2023/06/14 06:26:35;;;;;;;8.03;3.80;;;;;;;20.33;41.41;100299.72;5038912;28;20640;-64
2023/06/14 06:29:01;;;;;;;8.03;3.73;;;;;;;20.46;41.38;100303.88;5038748;28;20223;-64
2023/06/14 06:31:28;;;;;;;7.13;3.90;;;;;;;20.31;42.19;100315.91;5034186;28;20300;-64
2023/06/14 06:33:55;;;;;;;9.47;4.13;;;;;;;20.16;42.07;100302.88;5039470;28;20223;-64
2023/06/14 06:36:21;;;;;;;9.77;3.60;;;;;;;19.96;42.38;100310.59;5041869;28;20286;-64
2023/06/14 06:38:48;;;;;;;7.07;3.90;;;;;;;19.90;42.81;100306.25;5036811;28;20658;-64
2023/06/14 06:41:14;;;;;;;8.13;3.73;;;;;;;19.86;43.17;100315.31;5040520;28;20233;-65
2023/06/14 06:43:41;;;;;;;9.03;3.80;;;;;;;19.81;43.09;100317.25;5035374;28;20223;-63
2023/06/14 06:46:07;;;;;;;9.73;3.80;;;;;;;19.82;42.70;100327.09;5040452;28;21148;-64
2023/06/14 06:48:34;;;;;;;8.73;3.87;;;;;;;19.81;42.86;100327.13;5042225;28;20222;-64
2023/06/14 06:51:01;;;;;;;8.33;3.43;;;;;;;19.80;43.02;100333.41;5046463;28;20226;-64
2023/06/14 06:53:27;;;;;;;6.83;3.73;;;;;;;19.92;43.05;100333.09;5038883;28;20206;-64
2023/06/14 06:56:08;;;;;;;8.20;3.83;;;;;;;20.09;42.70;100330.00;5038607;28;20750;-64
2023/06/14 06:58:34;;;;;;;8.47;3.07;;;;;;;20.23;42.59;100331.38;5036436;28;20214;-64
2023/06/14 07:01:01;;;;;;;7.67;3.50;;;;;;;20.10;42.12;100343.41;5038528;28;20226;-64
2023/06/14 07:03:27;;;;;;;4.13;3.40;;;;;;;20.12;42.68;100348.72;5041636;28;20277;-64
2023/06/14 07:05:53;;;;;;;8.00;3.83;;;;;;;20.23;42.70;100347.50;5037683;28;20194;-65
2023/06/14 07:08:20;;;;;;;5.30;3.40;;;;;;;20.55;41.89;100343.97;5042958;28;20233;-64
2023/06/14 07:10:46;;;;;;;5.30;3.50;;;;;;;22.42;38.98;100345.22;5036097;28;20207;-65
2023/06/14 07:13:13;;;;;;;6.97;3.63;;;;;;;24.56;33.55;100339.34;5037744;28;20222;-64
2023/06/14 07:15:40;;;;;;;8.87;3.40;;;;;;;26.60;30.12;100345.63;5044553;28;20663;-64
2023/06/14 07:18:06;;;;;;;7.60;3.43;;;;;;;27.81;28.16;100347.94;5031371;28;20257;-64
2023/06/14 07:20:33;;;;;;;5.80;3.03;;;;;;;28.77;26.57;100346.69;5038362;28;20195;-64
2023/06/14 07:23:00;;;;;;;7.20;3.30;;;;;;;27.96;26.86;100346.16;5040575;28;20218;-65
2023/06/14 07:25:26;;;;;;;9.52;3.15;;;;;;;27.81;27.23;100349.78;5044537;28;20250;-64
2023/06/14 07:27:52;;;;;;;4.85;3.22;;;;;;;27.46;27.86;100358.09;5050419;28;20242;-65
2023/06/14 07:30:19;;;;;;;5.03;3.20;;;;;;;27.04;27.99;100359.53;5051411;28;20206;-64
2023/06/14 07:32:45;;;;;;;4.72;3.22;;;;;;;27.65;27.48;100356.13;5047053;28;20238;-64
2023/06/14 07:35:12;;;;;;;5.13;3.28;;;;;;;26.58;29.33;100352.09;5044017;28;20203;-65
2023/06/14 07:37:39;;;;;;;4.15;3.00;;;;;;;27.88;27.24;100357.50;5043220;28;20219;-64
2023/06/14 07:40:06;;;;;;;8.32;3.03;;;;;;;27.73;27.11;100351.13;5042167;28;20199;-64
2023/06/14 07:42:35;;;;;;;13.40;2.80;;;;;;;27.56;27.67;100363.88;5049421;28;20334;-65
2023/06/14 07:45:05;;;;;;;7.20;2.88;;;;;;;27.45;27.40;100361.78;5044592;28;20263;-65
2023/06/14 07:47:32;;;;;;;5.25;2.75;;;;;;;28.37;26.40;100354.59;5045388;28;20221;-64
2023/06/14 07:49:59;;;;;;;8.38;2.97;;;;;;;27.31;27.33;100370.75;5040711;28;20230;-65
2023/06/14 07:52:26;;;;;;;7.85;2.90;;;;;;;26.44;28.89;100352.84;5038366;28;20203;-64
2023/06/14 07:54:52;;;;;;;6.68;2.70;;;;;;;27.48;27.79;100343.44;5037858;28;20739;-65
2023/06/14 07:57:20;;;;;;;6.82;2.90;;;;;;;28.19;26.64;100345.66;5045565;28;20195;-64
2023/06/14 07:59:46;;;;;;;8.45;2.67;;;;;;;27.83;26.77;100347.84;5042966;28;20214;-64
2023/06/14 08:02:14;;;;;;;5.28;2.78;;;;;;;28.05;27.29;100349.22;5039647;28;20196;-64
2023/06/14 08:04:42;;;;;;;4.63;2.90;;;;;;;28.58;25.93;100357.88;5041172;28;20663;-64
2023/06/14 08:07:08;;;;;;;2.60;2.20;;;;;;;26.63;27.45;100364.47;5046599;28;20756;-65
2023/06/14 08:09:37;;;;;;;6.00;2.70;;;;;;;27.20;27.41;100354.13;5042094;28;20557;-65
2023/06/14 08:12:07;;;;;;;3.97;2.88;;;;;;;27.25;27.70;100364.78;5041585;28;20199;-65
2023/06/14 08:14:34;;;;;;;4.97;3.00;;;;;;;26.34;28.92;100357.84;5043713;28;20200;-65
2023/06/14 08:17:00;;;;;;;4.18;2.88;;;;;;;26.01;29.95;100356.81;5046024;28;20661;-64
2023/06/14 08:19:27;;;;;;;6.55;2.92;;;;;;;26.85;29.14;100359.66;5042665;28;20223;-65
2023/06/14 08:21:55;;;;;;;3.85;3.00;;;;;;;26.99;29.03;100358.03;5045162;28;20202;-64
2023/06/14 08:24:24;;;;;;;4.35;2.80;;;;;;;27.05;28.85;100346.81;5042795;28;20321;-65
2023/06/14 08:26:51;;;;;;;9.95;3.58;;;;;;;26.85;29.12;100346.06;5044914;28;20196;-65
2023/06/14 08:29:18;;;;;;;6.75;2.88;;;;;;;26.05;30.45;100348.47;5044711;28;20243;-64
2023/06/14 08:31:44;;;;;;;7.13;3.00;;;;;;;24.79;32.04;100341.88;5047164;28;20641;-64
2023/06/14 08:34:11;;;;;;;3.40;2.80;;;;;;;24.82;32.89;100339.06;5044722;28;20193;-66
2023/06/14 08:36:37;;;;;;;7.80;3.30;;;;;;;24.64;32.94;100348.88;5041202;28;20195;-67
2023/06/14 08:39:03;;;;;;;8.88;3.00;;;;;;;24.01;34.12;100345.28;5043521;28;20737;-67
2023/06/14 08:41:30;;;;;;;5.90;2.83;;;;;;;23.82;34.02;100340.75;5048760;28;20667;-67
2023/06/14 08:43:57;;;;;;;2.92;2.40;;;;;;;23.84;34.56;100333.44;5047911;28;20526;-66
2023/06/14 08:46:27;;;;;;;7.32;2.92;;;;;;;23.65;35.55;100346.84;5046443;28;20195;-66
2023/06/14 08:48:56;;;;;;;7.20;2.58;;;;;;;23.50;34.91;100336.63;5044752;28;20211;-65
2023/06/14 08:51:26;;;;;;;5.60;2.90;;;;;;;23.72;35.35;100343.84;5044639;28;20214;-65
2023/06/14 08:53:57;;;;;;;4.85;3.05;;;;;;;23.82;35.49;100348.84;5041630;28;20214;-64
2023/06/14 08:56:28;;;;;;;4.28;2.65;;;;;;;23.83;35.00;100343.38;5045269;28;20226;-64
2023/06/14 08:58:56;;;;;;;3.25;2.50;;;;;;;24.03;34.61;100345.25;5041774;28;20216;-65
2023/06/14 09:01:24;;;;;;;3.33;2.50;;;;;;;24.30;34.02;100337.78;5040513;28;20201;-64
2023/06/14 09:03:50;;;;;;;5.45;2.92;;;;;;;24.47;34.18;100340.66;5044796;28;20322;-65
2023/06/14 09:06:18;;;;;;;6.07;2.53;;;;;;;24.12;34.32;100336.75;5042697;28;20195;-64
2023/06/14 09:08:47;;;;;;;7.10;2.50;;;;;;;24.17;34.49;100350.06;5046754;28;20711;-64
2023/06/14 09:11:18;;;;;;;7.32;3.53;;;;;;;23.72;33.81;100342.94;5041829;28;20510;-65
2023/06/14 09:13:48;;;;;;;6.05;2.70;;;;;;;23.56;35.32;100352.63;5039659;28;20203;-64
2023/06/14 09:16:16;;;;;;;3.67;2.45;;;;;;;23.37;36.06;100341.66;5038499;28;20200;-64
2023/06/14 09:18:47;;;;;;;4.45;2.10;;;;;;;23.13;34.72;100362.38;5048000;28;20223;-65
2023/06/14 09:21:15;;;;;;;3.47;1.90;;;;;;;22.99;34.66;100353.94;5035945;28;20688;-65
2023/06/14 09:23:44;;;;;;;2.83;2.05;;;;;;;23.19;34.68;100354.03;5040762;28;20317;-65
2023/06/14 09:26:13;;;;;;;3.10;2.30;;;;;;;23.12;34.87;100353.41;5049382;28;20198;-65
2023/06/14 09:28:43;;;;;;;4.28;2.17;;;;;;;23.13;35.18;100362.38;5042265;28;20250;-65
2023/06/14 09:31:11;;;;;;;4.60;2.17;;;;;;;23.42;35.27;100356.72;5046745;28;20278;-66
2023/06/14 09:33:38;;;;;;;5.38;1.67;;;;;;;23.49;34.71;100362.78;5033983;28;20625;-66
2023/06/14 09:36:10;;;;;;;5.10;2.00;;;;;;;23.39;34.42;100364.97;5050659;28;20278;-67
2023/06/14 09:38:41;;;;;;;2.35;2.15;;;;;;;23.61;34.85;100365.00;5043039;28;20711;-67
2023/06/14 09:41:08;;;;;;;2.38;1.95;;;;;;;23.38;34.74;100371.31;5036865;28;20199;-66
2023/06/14 09:43:34;;;;;;;4.95;2.00;;;;;;;23.24;34.74;100387.19;5044458;28;20662;-65
2023/06/14 09:46:01;;;;;;;2.00;1.75;;;;;;;22.93;35.50;100375.78;5044796;28;20198;-66
2023/06/14 09:48:27;;;;;;;2.58;1.73;;;;;;;22.97;35.26;100386.41;5043276;28;20604;-67
2023/06/14 09:50:56;;;;;;;3.17;1.65;;;;;;;23.03;34.19;100388.00;5046797;28;20258;-66
2023/06/14 09:53:24;;;;;;;2.42;1.90;;;;;;;23.19;34.51;100388.28;5050661;28;20191;-66
2023/06/14 09:55:52;;;;;;;1.90;1.60;;;;;;;23.41;33.75;100381.13;5047571;28;20199;-67
2023/06/14 09:58:20;;;;;;;3.25;1.80;;;;;;;23.39;33.38;100383.00;5043413;28;20214;-67
2023/06/14 10:00:47;;;;;;;2.45;1.85;;;;;;;23.48;33.09;100384.47;5043351;28;20581;-64
2023/06/14 10:03:21;;;;;;;5.43;2.03;;;;;;;23.44;32.95;100379.19;5039947;28;20214;-64
2023/06/14 10:05:50;;;;;;;2.22;1.80;;;;;;;23.84;33.13;100374.00;5046707;28;20821;-65
2023/06/14 10:08:20;;;;;;;3.50;1.77;;;;;;;24.21;31.76;100373.34;5037262;28;20211;-64
2023/06/14 10:10:46;;;;;;;3.30;2.28;;;;;;;24.16;32.57;100369.97;5036359;28;20199;-64
2023/06/14 10:13:14;;;;;;;5.13;2.25;;;;;;;23.85;33.00;100371.25;5041460;28;20194;-65
2023/06/14 10:15:58;;;;;;;4.88;2.55;;;;;;;23.47;33.99;100377.28;5040676;28;20219;-64
2023/06/14 10:18:35;;;;;;;3.55;2.20;;;;;;;23.90;33.81;100368.34;5036791;28;20313;-65
2023/06/14 10:21:13;;;;;;;3.08;2.25;;;;;;;24.28;33.38;100369.44;5038561;28;20678;-65
2023/06/14 10:23:45;;;;;;;7.22;2.25;;;;;;;24.11;32.95;100371.97;5041785;28;20222;-64
2023/06/14 10:26:23;;;;;;;3.88;2.20;;;;;;;23.75;32.95;100372.56;5043216;28;20198;-65
2023/06/14 10:29:09;;;;;;;3.78;2.22;;;;;;;23.92;32.67;100366.44;5039030;28;20415;-64
2023/06/14 10:31:56;;;;;;;4.53;2.22;;;;;;;24.12;32.54;100362.91;5040402;28;20198;-64
2023/06/14 10:34:28;;;;;;;2.47;1.95;;;;;;;24.28;32.02;100374.88;5038239;28;20195;-65
2023/06/14 10:37:11;;;;;;;2.45;1.80;;;;;;;24.34;32.04;100364.66;5046528;28;20191;-64
2023/06/14 10:39:48;;;;;;;3.63;1.92;;;;;;;24.69;31.43;100376.63;5044273;28;20203;-64
2023/06/14 10:42:15;;;;;;;2.47;1.98;;;;;;;24.73;31.30;100362.94;5037726;28;20290;-65
2023/06/14 10:44:52;;;;;;;2.65;2.30;;;;;;;24.20;31.46;100380.59;5038750;28;20222;-65
2023/06/14 10:47:24;;;;;;;2.67;2.30;;;;;;;23.97;32.12;100378.84;5046567;28;20194;-65
2023/06/14 10:49:55;;;;;;;2.47;2.03;;;;;;;23.75;32.66;100384.28;5040923;28;20216;-66
2023/06/14 10:52:27;;;;;;;4.60;2.28;;;;;;;24.06;32.83;100383.88;5038874;28;20221;-67
2023/06/14 10:55:08;;;;;;;4.72;1.90;;;;;;;23.99;32.53;100378.78;5040948;28;20214;-66
2023/06/14 10:57:36;;;;;;;2.50;2.10;;;;;;;24.09;31.39;100379.28;5037747;28;20215;-67
2023/06/14 11:00:15;;;;;;;4.97;2.00;;;;;;;24.21;31.70;100389.59;5043902;28;20199;-66
2023/06/14 11:03:03;;;;;;;4.10;2.30;;;;;;;24.66;32.31;100382.19;5045104;28;20606;-67
2023/06/14 11:05:30;;;;;;;2.00;1.80;;;;;;;24.63;30.19;100392.28;5044305;28;20199;-66
2023/06/14 11:08:18;;;;;;;2.67;2.15;;;;;;;24.38;31.18;100390.63;5039735;28;20219;-67
2023/06/14 11:10:45;;;;;;;7.53;2.22;;;;;;;24.65;31.26;100379.56;5045311;28;20230;-66
2023/06/14 11:13:12;;;;;;;4.28;2.00;;;;;;;24.64;31.31;100381.38;5047991;28;20249;-66
2023/06/14 11:15:43;;;;;;;2.83;1.95;;;;;;;24.86;30.19;100386.72;5046452;28;20681;-66
2023/06/14 11:18:09;;;;;;;3.60;1.90;;;;;;;24.68;30.67;100384.81;5059546;23;20229;-66
2023/06/14 11:20:36;;;;;;;2.53;2.22;;;;;;;25.08;30.84;100381.22;5093219;28;20196;-63
2023/06/14 11:23:03;;;;;;;6.30;2.45;;;;;;;25.52;30.17;100376.41;5087290;28;20235;-63
2023/06/14 11:25:30;;;;;;;6.15;1.92;;;;;;;25.96;29.81;100383.31;5084000;28;20229;-63
2023/06/14 11:27:57;;;;;;;2.20;2.00;;;;;;;26.17;29.33;100383.13;5082650;28;20221;-62
2023/06/14 11:30:27;;;;;;;5.05;2.50;;;;;;;26.52;29.13;100383.19;5065757;28;20281;-65